sensor_id;sensor_type;location;lat;lon;timestamp;P1;durP1;ratioP1;P2;durP2;ratioP2
51566;SDS011;37657;53.182;5.638;2023-07-22T00:00:00;4.97;;;1.52;;
51566;SDS011;37657;53.182;5.638;2023-07-22T00:02:25;3.53;;;1.40;;
51566;SDS011;37657;53.182;5.638;2023-07-22T00:04:51;2.20;;;1.13;;
51566;SDS011;37657;53.182;5.638;2023-07-22T00:07:17;3.72;;;1.42;;
51566;SDS011;37657;53.182;5.638;2023-07-22T00:09:43;3.25;;;1.63;;
51566;SDS011;37657;53.182;5.638;2023-07-22T00:12:09;2.00;;;1.17;;
51566;SDS011;37657;53.182;5.638;2023-07-22T00:14:38;3.22;;;1.40;;
51566;SDS011;37657;53.182;5.638;2023-07-22T00:17:05;1.98;;;1.67;;
51566;SDS011;37657;53.182;5.638;2023-07-22T00:19:30;2.30;;;1.17;;
51566;SDS011;37657;53.182;5.638;2023-07-22T00:22:00;2.22;;;1.38;;
51566;SDS011;37657;53.182;5.638;2023-07-22T00:24:25;2.53;;;1.45;;
51566;SDS011;37657;53.182;5.638;2023-07-22T00:26:51;3.75;;;1.08;;
51566;SDS011;37657;53.182;5.638;2023-07-22T00:29:16;2.17;;;1.08;;
51566;SDS011;37657;53.182;5.638;2023-07-22T00:31:42;1.90;;;1.23;;
51566;SDS011;37657;53.182;5.638;2023-07-22T00:34:08;2.13;;;1.45;;
51566;SDS011;37657;53.182;5.638;2023-07-22T00:36:34;2.10;;;1.38;;
51566;SDS011;37657;53.182;5.638;2023-07-22T00:39:00;2.50;;;1.52;;
51566;SDS011;37657;53.182;5.638;2023-07-22T00:41:26;2.25;;;1.13;;
51566;SDS011;37657;53.182;5.638;2023-07-22T00:43:52;1.77;;;0.90;;
51566;SDS011;37657;53.182;5.638;2023-07-22T00:46:18;3.00;;;1.30;;
51566;SDS011;37657;53.182;5.638;2023-07-22T00:48:43;3.28;;;1.30;;
51566;SDS011;37657;53.182;5.638;2023-07-22T00:51:11;3.15;;;1.75;;
51566;SDS011;37657;53.182;5.638;2023-07-22T00:53:36;3.53;;;1.83;;
51566;SDS011;37657;53.182;5.638;2023-07-22T00:56:02;3.72;;;1.90;;
51566;SDS011;37657;53.182;5.638;2023-07-22T00:58:28;2.78;;;1.30;;
51566;SDS011;37657;53.182;5.638;2023-07-22T01:00:53;4.72;;;1.90;;
51566;SDS011;37657;53.182;5.638;2023-07-22T01:03:19;3.00;;;2.03;;
51566;SDS011;37657;53.182;5.638;2023-07-22T01:05:45;7.80;;;2.33;;
51566;SDS011;37657;53.182;5.638;2023-07-22T01:08:13;4.20;;;1.65;;
51566;SDS011;37657;53.182;5.638;2023-07-22T01:10:39;4.93;;;1.88;;
51566;SDS011;37657;53.182;5.638;2023-07-22T01:13:05;9.30;;;3.15;;
51566;SDS011;37657;53.182;5.638;2023-07-22T01:15:31;3.90;;;2.08;;
51566;SDS011;37657;53.182;5.638;2023-07-22T01:17:57;4.07;;;1.50;;
51566;SDS011;37657;53.182;5.638;2023-07-22T01:20:27;4.65;;;2.00;;
51566;SDS011;37657;53.182;5.638;2023-07-22T01:22:54;4.57;;;3.13;;
51566;SDS011;37657;53.182;5.638;2023-07-22T01:25:21;6.70;;;2.88;;
51566;SDS011;37657;53.182;5.638;2023-07-22T01:27:47;5.13;;;1.77;;
51566;SDS011;37657;53.182;5.638;2023-07-22T01:30:14;2.65;;;1.73;;
51566;SDS011;37657;53.182;5.638;2023-07-22T01:32:40;5.15;;;2.70;;
51566;SDS011;37657;53.182;5.638;2023-07-22T01:35:06;2.50;;;1.67;;
51566;SDS011;37657;53.182;5.638;2023-07-22T01:37:35;2.53;;;1.90;;
51566;SDS011;37657;53.182;5.638;2023-07-22T01:40:01;3.75;;;2.03;;
51566;SDS011;37657;53.182;5.638;2023-07-22T01:45:02;8.13;;;2.97;;
51566;SDS011;37657;53.182;5.638;2023-07-22T01:47:31;5.43;;;2.28;;
51566;SDS011;37657;53.182;5.638;2023-07-22T01:49:56;4.05;;;2.03;;
51566;SDS011;37657;53.182;5.638;2023-07-22T01:52:22;5.28;;;2.58;;
51566;SDS011;37657;53.182;5.638;2023-07-22T01:54:47;3.03;;;1.55;;
51566;SDS011;37657;53.182;5.638;2023-07-22T01:57:13;3.13;;;2.25;;
51566;SDS011;37657;53.182;5.638;2023-07-22T01:59:39;4.10;;;2.50;;
51566;SDS011;37657;53.182;5.638;2023-07-22T02:02:05;7.35;;;2.47;;
51566;SDS011;37657;53.182;5.638;2023-07-22T02:04:30;3.80;;;2.20;;
51566;SDS011;37657;53.182;5.638;2023-07-22T02:06:56;3.58;;;2.13;;
51566;SDS011;37657;53.182;5.638;2023-07-22T02:09:21;6.45;;;2.22;;
51566;SDS011;37657;53.182;5.638;2023-07-22T02:11:47;5.88;;;2.55;;
51566;SDS011;37657;53.182;5.638;2023-07-22T02:14:13;3.67;;;1.85;;
51566;SDS011;37657;53.182;5.638;2023-07-22T02:16:39;3.53;;;2.20;;
51566;SDS011;37657;53.182;5.638;2023-07-22T02:19:04;5.65;;;2.72;;
51566;SDS011;37657;53.182;5.638;2023-07-22T02:21:30;7.13;;;2.88;;
51566;SDS011;37657;53.182;5.638;2023-07-22T02:23:55;6.53;;;2.47;;
51566;SDS011;37657;53.182;5.638;2023-07-22T02:26:21;3.63;;;2.20;;
51566;SDS011;37657;53.182;5.638;2023-07-22T02:28:47;11.95;;;3.78;;
51566;SDS011;37657;53.182;5.638;2023-07-22T02:31:13;6.90;;;4.10;;
51566;SDS011;37657;53.182;5.638;2023-07-22T02:33:38;4.82;;;3.03;;
51566;SDS011;37657;53.182;5.638;2023-07-22T02:36:04;6.32;;;2.75;;
51566;SDS011;37657;53.182;5.638;2023-07-22T02:38:30;3.75;;;3.15;;
51566;SDS011;37657;53.182;5.638;2023-07-22T02:41:00;5.88;;;3.33;;
51566;SDS011;37657;53.182;5.638;2023-07-22T02:43:28;5.53;;;2.97;;
51566;SDS011;37657;53.182;5.638;2023-07-22T02:45:53;3.75;;;2.78;;
51566;SDS011;37657;53.182;5.638;2023-07-22T02:48:19;5.90;;;3.67;;
51566;SDS011;37657;53.182;5.638;2023-07-22T02:50:45;5.47;;;3.05;;
51566;SDS011;37657;53.182;5.638;2023-07-22T02:53:11;5.80;;;3.22;;
51566;SDS011;37657;53.182;5.638;2023-07-22T02:55:36;4.35;;;2.88;;
51566;SDS011;37657;53.182;5.638;2023-07-22T02:58:02;5.30;;;3.42;;
51566;SDS011;37657;53.182;5.638;2023-07-22T03:00:27;5.28;;;3.33;;
51566;SDS011;37657;53.182;5.638;2023-07-22T03:02:54;4.43;;;3.30;;
51566;SDS011;37657;53.182;5.638;2023-07-22T03:05:26;7.43;;;4.40;;
51566;SDS011;37657;53.182;5.638;2023-07-22T03:07:53;5.45;;;3.47;;
51566;SDS011;37657;53.182;5.638;2023-07-22T03:10:19;8.48;;;4.13;;
51566;SDS011;37657;53.182;5.638;2023-07-22T03:12:44;6.38;;;4.13;;
51566;SDS011;37657;53.182;5.638;2023-07-22T03:15:10;8.13;;;4.93;;
51566;SDS011;37657;53.182;5.638;2023-07-22T03:17:37;4.70;;;3.00;;
51566;SDS011;37657;53.182;5.638;2023-07-22T03:20:04;5.32;;;3.13;;
51566;SDS011;37657;53.182;5.638;2023-07-22T03:22:39;6.00;;;4.30;;
51566;SDS011;37657;53.182;5.638;2023-07-22T03:25:06;5.18;;;3.35;;
51566;SDS011;37657;53.182;5.638;2023-07-22T03:27:35;6.80;;;3.75;;
51566;SDS011;37657;53.182;5.638;2023-07-22T03:30:02;4.80;;;3.97;;
51566;SDS011;37657;53.182;5.638;2023-07-22T03:32:28;5.40;;;3.47;;
51566;SDS011;37657;53.182;5.638;2023-07-22T03:34:54;7.03;;;5.07;;
51566;SDS011;37657;53.182;5.638;2023-07-22T03:37:19;9.38;;;5.07;;
51566;SDS011;37657;53.182;5.638;2023-07-22T03:39:45;7.10;;;4.93;;
51566;SDS011;37657;53.182;5.638;2023-07-22T03:42:11;9.23;;;5.63;;
51566;SDS011;37657;53.182;5.638;2023-07-22T03:44:37;9.32;;;5.80;;
51566;SDS011;37657;53.182;5.638;2023-07-22T03:47:02;6.93;;;4.65;;
51566;SDS011;37657;53.182;5.638;2023-07-22T03:49:28;7.53;;;5.15;;
51566;SDS011;37657;53.182;5.638;2023-07-22T03:51:53;10.57;;;5.18;;
51566;SDS011;37657;53.182;5.638;2023-07-22T03:54:19;9.40;;;6.70;;
51566;SDS011;37657;53.182;5.638;2023-07-22T03:56:44;6.85;;;4.90;;
51566;SDS011;37657;53.182;5.638;2023-07-22T03:59:10;7.75;;;5.68;;
51566;SDS011;37657;53.182;5.638;2023-07-22T04:01:36;11.80;;;6.38;;
51566;SDS011;37657;53.182;5.638;2023-07-22T04:04:01;10.55;;;5.70;;
51566;SDS011;37657;53.182;5.638;2023-07-22T04:06:27;10.40;;;6.45;;
51566;SDS011;37657;53.182;5.638;2023-07-22T04:08:52;10.07;;;7.18;;
51566;SDS011;37657;53.182;5.638;2023-07-22T04:11:18;10.73;;;6.93;;
51566;SDS011;37657;53.182;5.638;2023-07-22T04:13:43;9.98;;;6.80;;
51566;SDS011;37657;53.182;5.638;2023-07-22T04:16:09;9.05;;;6.85;;
51566;SDS011;37657;53.182;5.638;2023-07-22T04:18:34;8.93;;;6.53;;
51566;SDS011;37657;53.182;5.638;2023-07-22T04:21:00;12.77;;;8.75;;
51566;SDS011;37657;53.182;5.638;2023-07-22T04:23:26;12.93;;;8.52;;
51566;SDS011;37657;53.182;5.638;2023-07-22T04:25:52;12.65;;;8.93;;
51566;SDS011;37657;53.182;5.638;2023-07-22T04:28:18;13.68;;;8.95;;
51566;SDS011;37657;53.182;5.638;2023-07-22T04:30:53;9.93;;;6.88;;
51566;SDS011;37657;53.182;5.638;2023-07-22T04:33:21;15.70;;;8.98;;
51566;SDS011;37657;53.182;5.638;2023-07-22T04:35:46;13.13;;;9.63;;
51566;SDS011;37657;53.182;5.638;2023-07-22T04:38:12;13.05;;;9.38;;
51566;SDS011;37657;53.182;5.638;2023-07-22T04:40:40;12.10;;;8.57;;
51566;SDS011;37657;53.182;5.638;2023-07-22T04:43:08;13.27;;;8.20;;
51566;SDS011;37657;53.182;5.638;2023-07-22T04:45:34;9.38;;;8.43;;
51566;SDS011;37657;53.182;5.638;2023-07-22T04:47:59;11.18;;;8.10;;
51566;SDS011;37657;53.182;5.638;2023-07-22T04:50:25;9.77;;;6.50;;
51566;SDS011;37657;53.182;5.638;2023-07-22T04:52:50;11.63;;;8.38;;
51566;SDS011;37657;53.182;5.638;2023-07-22T04:55:16;9.32;;;6.93;;
51566;SDS011;37657;53.182;5.638;2023-07-22T04:57:42;10.07;;;6.82;;
51566;SDS011;37657;53.182;5.638;2023-07-22T05:00:10;11.27;;;7.43;;
51566;SDS011;37657;53.182;5.638;2023-07-22T05:02:40;14.07;;;8.48;;
51566;SDS011;37657;53.182;5.638;2023-07-22T05:05:06;9.60;;;7.13;;
51566;SDS011;37657;53.182;5.638;2023-07-22T05:07:32;7.75;;;6.95;;
51566;SDS011;37657;53.182;5.638;2023-07-22T05:09:57;11.10;;;8.68;;
51566;SDS011;37657;53.182;5.638;2023-07-22T05:12:23;10.30;;;9.25;;
51566;SDS011;37657;53.182;5.638;2023-07-22T05:14:49;9.45;;;6.47;;
51566;SDS011;37657;53.182;5.638;2023-07-22T05:17:14;11.52;;;7.60;;
51566;SDS011;37657;53.182;5.638;2023-07-22T05:19:40;12.50;;;7.43;;
51566;SDS011;37657;53.182;5.638;2023-07-22T05:22:06;8.23;;;6.50;;
51566;SDS011;37657;53.182;5.638;2023-07-22T05:24:32;11.55;;;7.18;;
51566;SDS011;37657;53.182;5.638;2023-07-22T05:26:57;10.30;;;7.75;;
51566;SDS011;37657;53.182;5.638;2023-07-22T05:29:23;9.77;;;7.70;;
51566;SDS011;37657;53.182;5.638;2023-07-22T05:31:48;13.23;;;8.38;;
51566;SDS011;37657;53.182;5.638;2023-07-22T05:34:14;11.20;;;7.47;;
51566;SDS011;37657;53.182;5.638;2023-07-22T05:36:40;11.55;;;6.93;;
51566;SDS011;37657;53.182;5.638;2023-07-22T05:39:05;8.73;;;7.47;;
51566;SDS011;37657;53.182;5.638;2023-07-22T05:41:34;11.77;;;7.55;;
51566;SDS011;37657;53.182;5.638;2023-07-22T05:44:00;10.57;;;6.88;;
51566;SDS011;37657;53.182;5.638;2023-07-22T05:46:25;11.73;;;7.85;;
51566;SDS011;37657;53.182;5.638;2023-07-22T05:48:51;10.70;;;7.15;;
51566;SDS011;37657;53.182;5.638;2023-07-22T05:51:17;11.63;;;7.28;;
51566;SDS011;37657;53.182;5.638;2023-07-22T05:53:42;8.85;;;7.07;;
51566;SDS011;37657;53.182;5.638;2023-07-22T05:56:08;12.95;;;8.80;;
51566;SDS011;37657;53.182;5.638;2023-07-22T05:58:34;9.65;;;8.00;;
51566;SDS011;37657;53.182;5.638;2023-07-22T06:00:59;11.52;;;8.63;;
51566;SDS011;37657;53.182;5.638;2023-07-22T06:03:25;12.55;;;8.45;;
51566;SDS011;37657;53.182;5.638;2023-07-22T06:05:51;13.55;;;8.82;;
51566;SDS011;37657;53.182;5.638;2023-07-22T06:08:16;11.40;;;8.27;;
51566;SDS011;37657;53.182;5.638;2023-07-22T06:10:42;9.90;;;7.22;;
51566;SDS011;37657;53.182;5.638;2023-07-22T06:13:08;9.15;;;7.05;;
51566;SDS011;37657;53.182;5.638;2023-07-22T06:15:34;8.70;;;7.82;;
51566;SDS011;37657;53.182;5.638;2023-07-22T06:18:00;12.02;;;7.85;;
51566;SDS011;37657;53.182;5.638;2023-07-22T06:20:26;16.80;;;10.48;;
51566;SDS011;37657;53.182;5.638;2023-07-22T06:22:51;12.23;;;8.98;;
51566;SDS011;37657;53.182;5.638;2023-07-22T06:25:17;18.98;;;9.50;;
51566;SDS011;37657;53.182;5.638;2023-07-22T06:27:42;17.50;;;10.02;;
51566;SDS011;37657;53.182;5.638;2023-07-22T06:30:08;16.05;;;11.02;;
51566;SDS011;37657;53.182;5.638;2023-07-22T06:32:36;14.38;;;9.93;;
51566;SDS011;37657;53.182;5.638;2023-07-22T06:35:02;12.38;;;9.27;;
51566;SDS011;37657;53.182;5.638;2023-07-22T06:37:28;15.10;;;10.32;;
51566;SDS011;37657;53.182;5.638;2023-07-22T06:39:53;12.73;;;8.40;;
51566;SDS011;37657;53.182;5.638;2023-07-22T06:42:19;15.35;;;9.95;;
51566;SDS011;37657;53.182;5.638;2023-07-22T06:44:45;12.65;;;9.23;;
51566;SDS011;37657;53.182;5.638;2023-07-22T06:47:10;10.13;;;8.20;;
51566;SDS011;37657;53.182;5.638;2023-07-22T06:49:36;16.88;;;9.82;;
51566;SDS011;37657;53.182;5.638;2023-07-22T06:52:01;12.40;;;9.00;;
51566;SDS011;37657;53.182;5.638;2023-07-22T06:54:27;13.48;;;9.77;;
51566;SDS011;37657;53.182;5.638;2023-07-22T06:56:53;11.70;;;8.05;;
51566;SDS011;37657;53.182;5.638;2023-07-22T06:59:19;12.23;;;8.43;;
51566;SDS011;37657;53.182;5.638;2023-07-22T07:01:44;11.77;;;7.45;;
51566;SDS011;37657;53.182;5.638;2023-07-22T07:04:10;15.55;;;8.68;;
51566;SDS011;37657;53.182;5.638;2023-07-22T07:06:36;15.32;;;9.50;;
51566;SDS011;37657;53.182;5.638;2023-07-22T07:09:03;9.95;;;8.02;;
51566;SDS011;37657;53.182;5.638;2023-07-22T07:11:30;11.30;;;8.93;;
51566;SDS011;37657;53.182;5.638;2023-07-22T07:13:56;14.32;;;9.38;;
51566;SDS011;37657;53.182;5.638;2023-07-22T07:16:23;9.68;;;8.48;;
51566;SDS011;37657;53.182;5.638;2023-07-22T07:18:50;13.63;;;10.13;;
51566;SDS011;37657;53.182;5.638;2023-07-22T07:21:17;11.60;;;8.35;;
51566;SDS011;37657;53.182;5.638;2023-07-22T07:23:43;12.75;;;8.82;;
51566;SDS011;37657;53.182;5.638;2023-07-22T07:26:09;14.80;;;8.85;;
51566;SDS011;37657;53.182;5.638;2023-07-22T07:28:34;13.63;;;9.80;;
51566;SDS011;37657;53.182;5.638;2023-07-22T07:31:00;12.43;;;8.25;;
51566;SDS011;37657;53.182;5.638;2023-07-22T07:33:26;10.88;;;7.63;;
51566;SDS011;37657;53.182;5.638;2023-07-22T07:35:52;10.48;;;8.27;;
51566;SDS011;37657;53.182;5.638;2023-07-22T07:38:18;11.07;;;9.13;;
51566;SDS011;37657;53.182;5.638;2023-07-22T07:40:44;11.23;;;8.73;;
51566;SDS011;37657;53.182;5.638;2023-07-22T07:43:09;14.05;;;9.15;;
51566;SDS011;37657;53.182;5.638;2023-07-22T07:45:38;13.07;;;8.57;;
51566;SDS011;37657;53.182;5.638;2023-07-22T07:48:04;13.30;;;8.02;;
51566;SDS011;37657;53.182;5.638;2023-07-22T07:50:30;9.77;;;5.78;;
51566;SDS011;37657;53.182;5.638;2023-07-22T07:52:56;7.75;;;5.03;;
51566;SDS011;37657;53.182;5.638;2023-07-22T07:55:21;8.82;;;6.65;;
51566;SDS011;37657;53.182;5.638;2023-07-22T07:57:47;8.60;;;6.20;;
51566;SDS011;37657;53.182;5.638;2023-07-22T08:00:12;9.13;;;6.90;;
51566;SDS011;37657;53.182;5.638;2023-07-22T08:02:38;9.75;;;4.95;;
51566;SDS011;37657;53.182;5.638;2023-07-22T08:05:04;8.38;;;5.00;;
51566;SDS011;37657;53.182;5.638;2023-07-22T08:07:30;9.85;;;4.95;;
51566;SDS011;37657;53.182;5.638;2023-07-22T08:09:56;5.88;;;4.40;;
51566;SDS011;37657;53.182;5.638;2023-07-22T08:12:23;8.50;;;4.57;;
51566;SDS011;37657;53.182;5.638;2023-07-22T08:14:48;8.80;;;5.80;;
51566;SDS011;37657;53.182;5.638;2023-07-22T08:17:14;9.13;;;4.45;;
51566;SDS011;37657;53.182;5.638;2023-07-22T08:19:39;8.13;;;5.35;;
51566;SDS011;37657;53.182;5.638;2023-07-22T08:22:05;7.70;;;3.92;;
51566;SDS011;37657;53.182;5.638;2023-07-22T08:24:31;6.28;;;4.55;;
51566;SDS011;37657;53.182;5.638;2023-07-22T08:26:57;7.20;;;4.72;;
51566;SDS011;37657;53.182;5.638;2023-07-22T08:29:23;6.78;;;4.47;;
51566;SDS011;37657;53.182;5.638;2023-07-22T08:31:49;5.85;;;3.40;;
51566;SDS011;37657;53.182;5.638;2023-07-22T08:34:15;5.50;;;3.60;;
51566;SDS011;37657;53.182;5.638;2023-07-22T08:36:41;4.90;;;4.03;;
51566;SDS011;37657;53.182;5.638;2023-07-22T08:39:06;7.85;;;5.03;;
51566;SDS011;37657;53.182;5.638;2023-07-22T08:41:32;6.32;;;3.30;;
51566;SDS011;37657;53.182;5.638;2023-07-22T08:44:01;6.03;;;4.22;;
51566;SDS011;37657;53.182;5.638;2023-07-22T08:46:29;5.53;;;4.13;;
51566;SDS011;37657;53.182;5.638;2023-07-22T08:48:59;5.97;;;3.92;;
51566;SDS011;37657;53.182;5.638;2023-07-22T08:51:25;5.18;;;4.55;;
51566;SDS011;37657;53.182;5.638;2023-07-22T08:53:55;7.75;;;5.18;;
51566;SDS011;37657;53.182;5.638;2023-07-22T08:56:24;6.43;;;4.35;;
51566;SDS011;37657;53.182;5.638;2023-07-22T08:58:53;7.00;;;4.72;;
51566;SDS011;37657;53.182;5.638;2023-07-22T09:01:20;7.53;;;5.10;;
51566;SDS011;37657;53.182;5.638;2023-07-22T09:03:48;6.22;;;4.20;;
51566;SDS011;37657;53.182;5.638;2023-07-22T09:06:17;4.50;;;3.70;;
51566;SDS011;37657;53.182;5.638;2023-07-22T09:08:44;5.30;;;3.50;;
51566;SDS011;37657;53.182;5.638;2023-07-22T09:11:11;5.05;;;4.35;;
51566;SDS011;37657;53.182;5.638;2023-07-22T09:13:44;6.55;;;3.03;;
51566;SDS011;37657;53.182;5.638;2023-07-22T09:16:11;8.20;;;3.58;;
51566;SDS011;37657;53.182;5.638;2023-07-22T09:18:41;6.43;;;4.70;;
51566;SDS011;37657;53.182;5.638;2023-07-22T09:21:06;7.10;;;4.50;;
51566;SDS011;37657;53.182;5.638;2023-07-22T09:23:36;6.43;;;2.92;;
51566;SDS011;37657;53.182;5.638;2023-07-22T09:26:10;6.20;;;3.95;;
51566;SDS011;37657;53.182;5.638;2023-07-22T09:28:50;6.47;;;3.58;;
51566;SDS011;37657;53.182;5.638;2023-07-22T09:31:20;6.88;;;5.20;;
51566;SDS011;37657;53.182;5.638;2023-07-22T09:33:47;6.20;;;3.95;;
51566;SDS011;37657;53.182;5.638;2023-07-22T09:36:13;6.75;;;3.25;;
51566;SDS011;37657;53.182;5.638;2023-07-22T09:38:39;8.15;;;4.03;;
51566;SDS011;37657;53.182;5.638;2023-07-22T09:41:05;6.38;;;3.75;;
51566;SDS011;37657;53.182;5.638;2023-07-22T09:43:31;5.75;;;3.40;;
51566;SDS011;37657;53.182;5.638;2023-07-22T09:46:07;6.03;;;3.75;;
51566;SDS011;37657;53.182;5.638;2023-07-22T09:48:43;6.38;;;4.38;;
51566;SDS011;37657;53.182;5.638;2023-07-22T09:51:16;5.40;;;4.30;;
51566;SDS011;37657;53.182;5.638;2023-07-22T09:53:45;7.70;;;5.30;;
51566;SDS011;37657;53.182;5.638;2023-07-22T09:56:12;7.85;;;4.88;;
51566;SDS011;37657;53.182;5.638;2023-07-22T09:58:37;9.18;;;5.88;;
51566;SDS011;37657;53.182;5.638;2023-07-22T10:01:05;6.57;;;5.03;;
51566;SDS011;37657;53.182;5.638;2023-07-22T10:03:32;6.60;;;4.43;;
51566;SDS011;37657;53.182;5.638;2023-07-22T10:06:02;7.60;;;4.70;;
51566;SDS011;37657;53.182;5.638;2023-07-22T10:08:30;7.18;;;4.97;;
51566;SDS011;37657;53.182;5.638;2023-07-22T10:10:59;9.70;;;5.80;;
51566;SDS011;37657;53.182;5.638;2023-07-22T10:13:27;6.38;;;4.70;;
51566;SDS011;37657;53.182;5.638;2023-07-22T10:15:53;7.13;;;6.10;;
51566;SDS011;37657;53.182;5.638;2023-07-22T10:18:19;7.00;;;4.80;;
51566;SDS011;37657;53.182;5.638;2023-07-22T10:20:48;7.07;;;5.45;;
51566;SDS011;37657;53.182;5.638;2023-07-22T10:23:14;11.50;;;6.43;;
51566;SDS011;37657;53.182;5.638;2023-07-22T10:25:40;8.65;;;5.88;;
51566;SDS011;37657;53.182;5.638;2023-07-22T10:28:07;6.57;;;4.35;;
51566;SDS011;37657;53.182;5.638;2023-07-22T10:30:33;7.10;;;4.88;;
51566;SDS011;37657;53.182;5.638;2023-07-22T10:32:59;7.38;;;4.40;;
51566;SDS011;37657;53.182;5.638;2023-07-22T10:43:10;7.45;;;5.47;;
51566;SDS011;37657;53.182;5.638;2023-07-22T10:45:42;9.07;;;5.68;;
51566;SDS011;37657;53.182;5.638;2023-07-22T10:48:13;13.77;;;7.32;;
51566;SDS011;37657;53.182;5.638;2023-07-22T10:50:40;8.35;;;4.90;;
51566;SDS011;37657;53.182;5.638;2023-07-22T10:53:13;6.53;;;5.85;;
51566;SDS011;37657;53.182;5.638;2023-07-22T10:56:08;7.13;;;5.60;;
51566;SDS011;37657;53.182;5.638;2023-07-22T11:04:12;10.18;;;6.25;;
51566;SDS011;37657;53.182;5.638;2023-07-22T11:06:57;9.50;;;7.20;;
51566;SDS011;37657;53.182;5.638;2023-07-22T11:12:02;9.80;;;6.78;;
51566;SDS011;37657;53.182;5.638;2023-07-22T11:17:10;8.57;;;6.53;;
51566;SDS011;37657;53.182;5.638;2023-07-22T11:19:36;10.15;;;7.60;;
51566;SDS011;37657;53.182;5.638;2023-07-22T11:22:02;8.98;;;6.47;;
51566;SDS011;37657;53.182;5.638;2023-07-22T11:24:29;11.35;;;7.50;;
51566;SDS011;37657;53.182;5.638;2023-07-22T11:26:54;6.28;;;5.57;;
51566;SDS011;37657;53.182;5.638;2023-07-22T11:29:21;11.88;;;6.70;;
51566;SDS011;37657;53.182;5.638;2023-07-22T11:31:47;8.50;;;7.70;;
51566;SDS011;37657;53.182;5.638;2023-07-22T11:36:41;10.77;;;8.00;;
51566;SDS011;37657;53.182;5.638;2023-07-22T11:39:08;8.35;;;6.57;;
51566;SDS011;37657;53.182;5.638;2023-07-22T11:41:39;10.18;;;6.70;;
51566;SDS011;37657;53.182;5.638;2023-07-22T11:44:07;7.15;;;5.78;;
51566;SDS011;37657;53.182;5.638;2023-07-22T11:49:30;9.20;;;6.22;;
51566;SDS011;37657;53.182;5.638;2023-07-22T11:54:33;7.65;;;5.68;;
51566;SDS011;37657;53.182;5.638;2023-07-22T11:59:55;6.63;;;5.25;;
51566;SDS011;37657;53.182;5.638;2023-07-22T12:02:30;9.35;;;6.57;;
51566;SDS011;37657;53.182;5.638;2023-07-22T12:05:04;10.10;;;6.93;;
51566;SDS011;37657;53.182;5.638;2023-07-22T12:07:32;5.93;;;4.18;;
51566;SDS011;37657;53.182;5.638;2023-07-22T12:09:59;9.45;;;5.57;;
51566;SDS011;37657;53.182;5.638;2023-07-22T12:12:36;8.60;;;5.05;;
51566;SDS011;37657;53.182;5.638;2023-07-22T12:17:59;6.97;;;4.68;;
51566;SDS011;37657;53.182;5.638;2023-07-22T12:20:26;7.30;;;4.85;;
51566;SDS011;37657;53.182;5.638;2023-07-22T12:22:53;4.70;;;3.53;;
51566;SDS011;37657;53.182;5.638;2023-07-22T12:25:20;6.30;;;3.50;;
51566;SDS011;37657;53.182;5.638;2023-07-22T12:27:46;4.38;;;2.75;;
51566;SDS011;37657;53.182;5.638;2023-07-22T12:30:11;6.60;;;3.70;;
51566;SDS011;37657;53.182;5.638;2023-07-22T12:32:37;6.18;;;3.40;;
51566;SDS011;37657;53.182;5.638;2023-07-22T12:35:04;7.03;;;3.95;;
51566;SDS011;37657;53.182;5.638;2023-07-22T12:37:30;4.43;;;3.28;;
51566;SDS011;37657;53.182;5.638;2023-07-22T12:39:56;16.55;;;3.80;;
51566;SDS011;37657;53.182;5.638;2023-07-22T12:42:22;7.75;;;3.47;;
51566;SDS011;37657;53.182;5.638;2023-07-22T12:44:48;5.13;;;3.42;;
51566;SDS011;37657;53.182;5.638;2023-07-22T12:47:13;5.97;;;4.38;;
51566;SDS011;37657;53.182;5.638;2023-07-22T12:49:39;5.63;;;3.33;;
51566;SDS011;37657;53.182;5.638;2023-07-22T12:52:04;7.28;;;3.30;;
51566;SDS011;37657;53.182;5.638;2023-07-22T12:54:34;7.38;;;3.83;;
51566;SDS011;37657;53.182;5.638;2023-07-22T12:57:03;8.63;;;4.53;;
51566;SDS011;37657;53.182;5.638;2023-07-22T12:59:29;8.05;;;4.30;;
51566;SDS011;37657;53.182;5.638;2023-07-22T13:01:55;5.50;;;4.07;;
51566;SDS011;37657;53.182;5.638;2023-07-22T13:04:21;6.40;;;4.25;;
51566;SDS011;37657;53.182;5.638;2023-07-22T13:06:47;4.85;;;3.10;;
51566;SDS011;37657;53.182;5.638;2023-07-22T13:09:12;6.82;;;3.53;;
51566;SDS011;37657;53.182;5.638;2023-07-22T13:11:38;6.30;;;4.53;;
51566;SDS011;37657;53.182;5.638;2023-07-22T13:14:04;17.85;;;4.30;;
51566;SDS011;37657;53.182;5.638;2023-07-22T13:16:29;8.02;;;5.25;;
51566;SDS011;37657;53.182;5.638;2023-07-22T13:18:55;10.68;;;4.78;;
51566;SDS011;37657;53.182;5.638;2023-07-22T13:21:20;9.02;;;3.95;;
51566;SDS011;37657;53.182;5.638;2023-07-22T13:23:46;10.23;;;5.85;;
51566;SDS011;37657;53.182;5.638;2023-07-22T13:26:11;7.80;;;4.03;;
51566;SDS011;37657;53.182;5.638;2023-07-22T13:28:37;8.55;;;5.32;;
51566;SDS011;37657;53.182;5.638;2023-07-22T13:31:03;4.53;;;3.47;;
51566;SDS011;37657;53.182;5.638;2023-07-22T13:33:28;8.85;;;4.70;;
51566;SDS011;37657;53.182;5.638;2023-07-22T13:35:54;9.20;;;4.65;;
51566;SDS011;37657;53.182;5.638;2023-07-22T13:38:19;8.85;;;5.63;;
51566;SDS011;37657;53.182;5.638;2023-07-22T13:40:46;8.55;;;5.82;;
51566;SDS011;37657;53.182;5.638;2023-07-22T13:43:11;11.18;;;7.50;;
51566;SDS011;37657;53.182;5.638;2023-07-22T13:45:37;9.23;;;4.32;;
51566;SDS011;37657;53.182;5.638;2023-07-22T13:48:03;6.18;;;4.65;;
51566;SDS011;37657;53.182;5.638;2023-07-22T13:50:28;8.50;;;5.07;;
51566;SDS011;37657;53.182;5.638;2023-07-22T13:52:54;8.57;;;4.70;;
51566;SDS011;37657;53.182;5.638;2023-07-22T13:55:20;9.02;;;5.47;;
51566;SDS011;37657;53.182;5.638;2023-07-22T13:57:45;8.32;;;4.80;;
51566;SDS011;37657;53.182;5.638;2023-07-22T14:00:11;7.72;;;5.03;;
51566;SDS011;37657;53.182;5.638;2023-07-22T14:02:38;11.40;;;5.35;;
51566;SDS011;37657;53.182;5.638;2023-07-22T14:05:04;9.88;;;6.15;;
51566;SDS011;37657;53.182;5.638;2023-07-22T14:07:29;8.35;;;4.70;;
51566;SDS011;37657;53.182;5.638;2023-07-22T14:09:55;16.92;;;6.00;;
51566;SDS011;37657;53.182;5.638;2023-07-22T14:12:21;12.30;;;6.03;;
51566;SDS011;37657;53.182;5.638;2023-07-22T14:14:46;7.20;;;5.22;;
51566;SDS011;37657;53.182;5.638;2023-07-22T14:17:12;6.82;;;5.10;;
51566;SDS011;37657;53.182;5.638;2023-07-22T14:19:37;7.45;;;4.82;;
51566;SDS011;37657;53.182;5.638;2023-07-22T14:22:03;11.65;;;4.50;;
51566;SDS011;37657;53.182;5.638;2023-07-22T14:24:29;8.75;;;5.80;;
51566;SDS011;37657;53.182;5.638;2023-07-22T14:26:55;6.85;;;4.13;;
51566;SDS011;37657;53.182;5.638;2023-07-22T14:29:23;10.02;;;4.07;;
51566;SDS011;37657;53.182;5.638;2023-07-22T14:31:50;6.50;;;3.17;;
51566;SDS011;37657;53.182;5.638;2023-07-22T14:34:16;6.57;;;3.83;;
51566;SDS011;37657;53.182;5.638;2023-07-22T14:36:41;5.78;;;3.35;;
51566;SDS011;37657;53.182;5.638;2023-07-22T14:39:08;6.03;;;3.70;;
51566;SDS011;37657;53.182;5.638;2023-07-22T14:41:35;7.03;;;3.60;;
51566;SDS011;37657;53.182;5.638;2023-07-22T14:44:00;7.38;;;3.17;;
51566;SDS011;37657;53.182;5.638;2023-07-22T14:46:26;5.63;;;3.53;;
51566;SDS011;37657;53.182;5.638;2023-07-22T14:48:51;10.45;;;3.65;;
51566;SDS011;37657;53.182;5.638;2023-07-22T14:51:17;5.07;;;3.53;;
51566;SDS011;37657;53.182;5.638;2023-07-22T14:53:43;8.88;;;3.95;;
51566;SDS011;37657;53.182;5.638;2023-07-22T14:56:08;7.57;;;4.18;;
51566;SDS011;37657;53.182;5.638;2023-07-22T14:58:34;7.63;;;4.10;;
51566;SDS011;37657;53.182;5.638;2023-07-22T15:00:59;7.32;;;3.28;;
51566;SDS011;37657;53.182;5.638;2023-07-22T15:03:26;7.55;;;4.10;;
51566;SDS011;37657;53.182;5.638;2023-07-22T15:05:51;6.03;;;3.92;;
51566;SDS011;37657;53.182;5.638;2023-07-22T15:08:17;8.98;;;4.53;;
51566;SDS011;37657;53.182;5.638;2023-07-22T15:10:43;5.50;;;3.25;;
51566;SDS011;37657;53.182;5.638;2023-07-22T15:13:08;5.50;;;3.63;;